Time;durP1;ratioP1;P1;durP2;ratioP2;P2;SDS_P1;SDS_P2;PMS_P1;PMS_P2;Temp;Humidity;BMP_temperature;BMP_pressure;BME280_temperature;BME280_humidity;BME280_pressure;Samples;Min_cycle;Max_cycle;Signal;HPM_P1;HPM_P2
2022/10/23 00:01:14;;;;;;;11.90;1.97;;;11.60;99.90;;;;;;5004186;28;20174;-80
2022/10/23 00:03:40;;;;;;;11.50;1.97;;;11.60;99.90;;;;;;5003364;28;20178;-79
2022/10/23 00:06:06;;;;;;;9.77;2.23;;;11.50;99.90;;;;;;5003829;28;20196;-80
2022/10/23 00:08:31;;;;;;;6.60;2.00;;;11.50;99.90;;;;;;5006337;28;20182;-80
2022/10/23 00:10:57;;;;;;;5.70;1.60;;;11.50;99.90;;;;;;5001592;28;20188;-80
2022/10/23 00:13:22;;;;;;;7.43;1.67;;;11.50;99.90;;;;;;5001899;28;20183;-80
2022/10/23 00:15:48;;;;;;;5.77;1.87;;;11.50;99.90;;;;;;5003656;28;20213;-80
2022/10/23 00:18:13;;;;;;;5.90;1.67;;;11.50;99.90;;;;;;5000751;28;20220;-80
2022/10/23 00:20:39;;;;;;;9.73;2.13;;;11.50;99.90;;;;;;5000675;28;20217;-78
2022/10/23 00:23:04;;;;;;;13.77;1.67;;;11.40;99.90;;;;;;5001552;28;20194;-80
2022/10/23 00:25:31;;;;;;;4.27;1.50;;;11.50;99.90;;;;;;5001724;28;20178;-80
2022/10/23 00:27:56;;;;;;;11.30;2.17;;;11.50;99.90;;;;;;5002346;28;20303;-79
2022/10/23 00:30:22;;;;;;;13.37;1.97;;;11.40;99.90;;;;;;5002359;28;20232;-80
2022/10/23 00:32:47;;;;;;;9.60;1.77;;;11.50;99.90;;;;;;5001339;28;20652;-79
2022/10/23 00:35:13;;;;;;;9.67;1.97;;;11.40;99.90;;;;;;5001616;28;20264;-78
2022/10/23 00:37:39;;;;;;;4.27;1.40;;;11.40;99.90;;;;;;4999872;28;20749;-78
2022/10/23 00:40:05;;;;;;;14.43;1.83;;;11.40;99.90;;;;;;5001632;28;20170;-79
2022/10/23 00:42:30;;;;;;;8.37;1.83;;;11.40;99.90;;;;;;5000595;28;20201;-80
2022/10/23 00:45:25;;;;;;;10.90;1.80;;;11.40;99.90;;;;;;4999665;28;20186;-79
2022/10/23 00:47:51;;;;;;;5.70;1.77;;;11.50;99.90;;;;;;5001837;28;20261;-80
2022/10/23 00:50:20;;;;;;;4.13;1.87;;;11.40;99.90;;;;;;5000049;28;20182;-79
2022/10/23 00:52:49;;;;;;;9.77;1.70;;;11.40;99.90;;;;;;4999594;28;20277;-80
2022/10/23 00:55:16;;;;;;;4.03;1.57;;;11.40;99.90;;;;;;5001463;28;20651;-79
2022/10/23 00:57:43;;;;;;;5.97;1.90;;;11.40;99.90;;;;;;4998656;28;20218;-77
2022/10/23 01:00:16;;;;;;;4.83;1.60;;;11.40;99.90;;;;;;5000870;28;20539;-80
2022/10/23 01:02:42;;;;;;;10.37;1.60;;;11.40;99.90;;;;;;5000843;28;20188;-80
2022/10/23 01:05:08;;;;;;;3.87;1.80;;;11.40;99.90;;;;;;5000546;28;20178;-80
2022/10/23 01:07:55;;;;;;;9.53;2.03;;;11.40;99.90;;;;;;4999201;28;20201;-80
2022/10/23 01:10:38;;;;;;;6.17;1.70;;;11.40;99.90;;;;;;5001282;28;20589;-80
2022/10/23 01:13:22;;;;;;;10.30;1.93;;;11.50;99.90;;;;;;5000134;28;20170;-80
2022/10/23 01:15:56;;;;;;;8.33;1.90;;;11.50;99.90;;;;;;4996278;28;103338;-79
2022/10/23 01:18:27;;;;;;;8.27;2.00;;;11.50;99.90;;;;;;5000320;28;20173;-80
2022/10/23 01:21:07;;;;;;;8.80;2.00;;;11.50;99.90;;;;;;5000987;28;20169;-80
2022/10/23 01:23:50;;;;;;;9.07;2.33;;;11.70;99.90;;;;;;5001323;28;20213;-79
2022/10/23 01:26:50;;;;;;;3.90;1.80;;;11.60;99.90;;;;;;5004937;28;20200;-80
2022/10/23 01:29:23;;;;;;;5.27;1.60;;;11.70;99.90;;;;;;5020123;28;20162;-79
2022/10/23 01:31:58;;;;;;;6.67;1.77;;;11.70;99.90;;;;;;5020554;28;20165;-80
2022/10/23 01:34:36;;;;;;;9.27;1.67;;;11.70;99.90;;;;;;5017984;28;20173;-78
2022/10/23 01:37:04;;;;;;;3.20;1.73;;;11.70;99.90;;;;;;5019308;28;20661;-80
2022/10/23 01:39:40;;;;;;;4.80;1.90;;;11.70;99.90;;;;;;5018289;28;20216;-80
2022/10/23 01:42:20;;;;;;;3.43;1.80;;;11.70;99.90;;;;;;5019558;28;20169;-80
2022/10/23 01:45:15;;;;;;;7.43;2.30;;;11.80;99.90;;;;;;5017802;28;20176;-80
2022/10/23 01:47:42;;;;;;;6.93;1.87;;;11.80;99.90;;;;;;4998923;28;20209;-79
2022/10/23 01:50:10;;;;;;;13.00;2.20;;;11.90;99.90;;;;;;5017719;28;20184;-80
2022/10/23 01:52:36;;;;;;;6.40;2.33;;;11.80;99.90;;;;;;5018301;28;20716;-80
2022/10/23 01:55:02;;;;;;;11.33;1.77;;;11.90;99.90;;;;;;5019648;28;20176;-80
2022/10/23 01:57:31;;;;;;;13.03;2.07;;;11.90;99.90;;;;;;5019255;28;20189;-77
2022/10/23 02:00:02;;;;;;;4.77;1.93;;;11.90;99.90;;;;;;5018496;28;20627;-80
2022/10/23 02:02:31;;;;;;;9.07;2.57;;;11.90;99.90;;;;;;5019473;28;20585;-79
2022/10/23 02:05:11;;;;;;;7.60;1.90;;;11.90;99.90;;;;;;5017211;28;20177;-80
2022/10/23 02:07:36;;;;;;;5.33;2.13;;;11.90;99.90;;;;;;5016715;28;20207;-80
2022/10/23 02:10:05;;;;;;;18.03;2.07;;;11.90;99.90;;;;;;5017503;28;20173;-79
2022/10/23 02:12:54;;;;;;;10.47;1.90;;;11.90;99.90;;;;;;5018836;28;20180;-80
2022/10/23 02:15:36;;;;;;;9.60;2.20;;;12.00;99.90;;;;;;5019035;28;20631;-80
2022/10/23 02:18:25;;;;;;;11.57;3.03;;;11.90;99.90;;;;;;5019602;28;20228;-78
2022/10/23 02:20:55;;;;;;;5.37;1.80;;;12.10;99.90;;;;;;5018336;28;20189;-80
2022/10/23 02:23:33;;;;;;;5.70;1.87;;;11.90;99.90;;;;;;5017567;28;20651;-80
2022/10/23 02:26:22;;;;;;;5.77;2.63;;;11.90;99.90;;;;;;5017528;28;20165;-79
2022/10/23 02:28:59;;;;;;;6.07;1.93;;;12.00;99.90;;;;;;5017193;28;20187;-80
2022/10/23 02:31:24;;;;;;;6.57;2.23;;;12.00;99.90;;;;;;5018588;28;20173;-81
2022/10/23 02:33:50;;;;;;;7.70;1.77;;;12.00;99.90;;;;;;5017189;28;20176;-80
2022/10/23 02:36:18;;;;;;;8.60;1.70;;;12.00;99.90;;;;;;5018787;28;20208;-79
2022/10/23 02:38:44;;;;;;;8.97;1.80;;;11.90;99.90;;;;;;5018360;28;20177;-80
2022/10/23 02:41:45;;;;;;;6.13;1.90;;;11.90;99.90;;;;;;5018542;28;20614;-80
2022/10/23 02:44:29;;;;;;;3.83;1.73;;;11.90;99.90;;;;;;5018182;28;20256;-79
2022/10/23 02:47:02;;;;;;;7.07;1.80;;;12.00;99.90;;;;;;5016334;28;20211;-79
2022/10/23 02:49:56;;;;;;;6.00;1.73;;;12.00;99.90;;;;;;5017835;28;20204;-79
2022/10/23 02:52:52;;;;;;;6.43;1.80;;;12.00;99.90;;;;;;5018197;28;20161;-79
2022/10/23 02:55:26;;;;;;;7.60;1.73;;;12.00;99.90;;;;;;5016274;28;20176;-79
2022/10/23 02:58:00;;;;;;;10.37;1.80;;;12.00;99.90;;;;;;5018334;28;20238;-80
2022/10/23 03:00:29;;;;;;;8.47;1.90;;;12.00;99.90;;;;;;5016073;28;20220;-79
2022/10/23 03:02:59;;;;;;;13.73;1.87;;;11.90;99.90;;;;;;5017771;28;20241;-80
2022/10/23 03:05:32;;;;;;;17.67;1.90;;;11.90;99.90;;;;;;5017722;28;20208;-80
2022/10/23 03:07:58;;;;;;;8.23;1.70;;;11.80;99.90;;;;;;5019688;28;20197;-79
2022/10/23 03:10:23;;;;;;;4.70;2.07;;;11.80;99.90;;;;;;5024583;28;20177;-80
2022/10/23 03:12:49;;;;;;;11.20;1.63;;;11.80;99.90;;;;;;5025335;28;20189;-80
2022/10/23 03:15:16;;;;;;;10.57;1.73;;;11.80;99.90;;;;;;5029678;28;20185;-78
2022/10/23 03:17:42;;;;;;;6.47;1.73;;;11.70;99.90;;;;;;5039464;28;20196;-77
2022/10/23 03:20:08;;;;;;;10.53;1.83;;;11.70;99.90;;;;;;5039804;28;20249;-79
2022/10/23 03:22:34;;;;;;;11.73;2.10;;;11.70;99.90;;;;;;5020510;28;20177;-80
2022/10/23 03:24:59;;;;;;;8.30;1.67;;;11.70;99.90;;;;;;5020834;28;20192;-80
2022/10/23 03:27:24;;;;;;;8.63;1.80;;;11.70;99.90;;;;;;5019170;28;20763;-79
2022/10/23 03:29:50;;;;;;;5.50;1.77;;;11.70;99.90;;;;;;5020600;28;20176;-80
2022/10/23 03:32:16;;;;;;;8.60;1.60;;;11.70;99.90;;;;;;5019385;28;20205;-79
2022/10/23 03:34:41;;;;;;;15.77;1.60;;;11.70;99.90;;;;;;5020452;28;20176;-79
2022/10/23 03:37:07;;;;;;;7.77;1.47;;;11.70;99.90;;;;;;5019243;28;20239;-79
2022/10/23 03:39:33;;;;;;;16.17;1.83;;;11.70;99.90;;;;;;5021574;28;20177;-79
2022/10/23 03:41:59;;;;;;;10.73;1.53;;;11.70;99.90;;;;;;5019494;28;20200;-79
2022/10/23 03:44:24;;;;;;;6.30;1.87;;;11.70;99.90;;;;;;5020269;28;20562;-79
2022/10/23 03:46:50;;;;;;;7.77;1.63;;;11.70;99.90;;;;;;5018725;28;20613;-79
2022/10/23 03:49:15;;;;;;;5.57;1.53;;;11.70;99.90;;;;;;5018789;28;20359;-79
2022/10/23 03:51:42;;;;;;;8.33;1.90;;;11.70;99.90;;;;;;5019977;28;20177;-79
2022/10/23 03:54:08;;;;;;;6.93;1.77;;;11.70;99.90;;;;;;5019877;28;20196;-79
2022/10/23 03:56:34;;;;;;;9.30;2.10;;;11.70;99.90;;;;;;5018271;28;20682;-80
2022/10/23 03:58:59;;;;;;;9.70;1.70;;;11.70;99.90;;;;;;5018480;28;20177;-79
2022/10/23 04:01:25;;;;;;;8.43;1.87;;;11.70;99.90;;;;;;5018304;28;20177;-79
2022/10/23 04:03:52;;;;;;;8.30;1.73;;;11.70;99.90;;;;;;5018599;28;20177;-79
2022/10/23 04:06:17;;;;;;;10.23;1.80;;;11.70;99.90;;;;;;5018218;28;20573;-79
2022/10/23 04:08:44;;;;;;;9.13;1.70;;;11.70;99.90;;;;;;5019681;28;20172;-79
2022/10/23 04:11:10;;;;;;;2.17;1.20;;;11.70;99.90;;;;;;5019872;28;20169;-80
2022/10/23 04:13:35;;;;;;;14.47;1.90;;;11.70;99.90;;;;;;5020471;28;20197;-79
2022/10/23 04:16:01;;;;;;;6.17;1.60;;;11.70;99.90;;;;;;5017705;28;20185;-79
2022/10/23 04:18:27;;;;;;;4.20;1.73;;;11.70;99.90;;;;;;5018119;28;20181;-79
2022/10/23 04:20:52;;;;;;;7.00;1.80;;;11.70;99.90;;;;;;5019447;28;20181;-79
2022/10/23 04:23:18;;;;;;;11.37;1.50;;;11.70;99.90;;;;;;5019290;28;20546;-78
2022/10/23 04:25:44;;;;;;;3.80;1.57;;;11.70;99.90;;;;;;5017826;28;20180;-78
2022/10/23 04:28:09;;;;;;;10.93;2.00;;;11.70;99.90;;;;;;5016973;28;20279;-78
2022/10/23 04:30:35;;;;;;;4.20;1.60;;;11.70;99.90;;;;;;5018630;28;20181;-79
2022/10/23 04:33:00;;;;;;;2.33;1.60;;;11.70;99.90;;;;;;5019027;28;20173;-78
2022/10/23 04:35:26;;;;;;;10.37;1.83;;;11.70;99.90;;;;;;5017350;28;20185;-79
2022/10/23 04:37:51;;;;;;;8.77;2.00;;;11.70;99.90;;;;;;5017069;28;20263;-80
2022/10/23 04:40:17;;;;;;;7.17;1.53;;;11.70;99.90;;;;;;5017909;28;20222;-79
2022/10/23 04:42:42;;;;;;;6.10;1.70;;;11.70;99.90;;;;;;5018534;28;20179;-80
2022/10/23 04:45:08;;;;;;;11.23;2.67;;;11.70;99.90;;;;;;5017149;28;20181;-79
2022/10/23 04:47:34;;;;;;;7.83;1.87;;;11.70;99.90;;;;;;5017060;28;20200;-80
2022/10/23 04:49:59;;;;;;;6.77;2.10;;;11.70;99.90;;;;;;5016931;28;20180;-80
2022/10/23 04:52:25;;;;;;;9.77;1.80;;;11.70;99.90;;;;;;5018643;28;20181;-78
2022/10/23 04:54:50;;;;;;;5.97;1.80;;;11.80;99.90;;;;;;5018367;28;20180;-80
2022/10/23 04:57:16;;;;;;;10.13;2.13;;;11.80;99.90;;;;;;5018263;28;20604;-79
2022/10/23 04:59:42;;;;;;;5.50;1.80;;;11.70;99.90;;;;;;5018033;28;20183;-80
2022/10/23 05:02:07;;;;;;;6.97;2.00;;;11.70;99.90;;;;;;5018688;28;20610;-80
2022/10/23 05:04:33;;;;;;;4.87;1.80;;;11.80;99.90;;;;;;5017226;28;20173;-79
2022/10/23 05:06:58;;;;;;;6.00;1.80;;;11.80;99.90;;;;;;5018981;28;20621;-79
2022/10/23 05:09:24;;;;;;;2.13;1.60;;;11.90;99.90;;;;;;5016197;28;20199;-80
2022/10/23 05:11:49;;;;;;;7.13;1.80;;;11.90;99.90;;;;;;5018251;28;20172;-78
2022/10/23 05:14:15;;;;;;;4.40;1.80;;;11.90;99.90;;;;;;5017871;28;20191;-80
2022/10/23 05:16:49;;;;;;;6.67;1.87;;;12.00;99.90;;;;;;5016040;28;20660;-79
2022/10/23 05:19:20;;;;;;;8.63;1.70;;;12.00;99.90;;;;;;5015271;28;20173;-79
2022/10/23 05:21:47;;;;;;;3.03;1.80;;;12.00;99.90;;;;;;5016748;28;20165;-80
2022/10/23 05:24:13;;;;;;;4.20;1.93;;;12.10;99.90;;;;;;5017295;28;20161;-79
2022/10/23 05:26:39;;;;;;;4.30;1.83;;;12.10;99.90;;;;;;5016917;28;20598;-78
2022/10/23 05:29:04;;;;;;;5.20;1.77;;;12.10;99.90;;;;;;5014659;28;20647;-79
2022/10/23 05:31:31;;;;;;;3.70;2.10;;;12.20;99.90;;;;;;5015634;28;20173;-80
2022/10/23 05:33:57;;;;;;;9.73;2.03;;;12.20;99.90;;;;;;5017373;28;20316;-80
2022/10/23 05:36:24;;;;;;;10.87;2.67;;;12.30;99.90;;;;;;5015115;28;20244;-80
2022/10/23 05:38:50;;;;;;;4.27;2.17;;;12.40;99.90;;;;;;5015422;28;20777;-80
2022/10/23 05:41:15;;;;;;;4.90;2.00;;;12.40;99.90;;;;;;5017339;28;20207;-80
2022/10/23 05:43:41;;;;;;;5.23;2.13;;;12.50;99.90;;;;;;5016521;28;20275;-80
2022/10/23 05:46:06;;;;;;;6.10;1.80;;;12.50;99.90;;;;;;5015620;28;20172;-80
2022/10/23 05:48:33;;;;;;;5.60;2.07;;;12.50;99.90;;;;;;5017000;28;20176;-81
2022/10/23 05:51:06;;;;;;;5.37;1.90;;;12.50;99.90;;;;;;5016634;28;20173;-80
2022/10/23 05:53:32;;;;;;;10.47;2.67;;;12.50;99.90;;;;;;5017389;28;20181;-80
2022/10/23 05:56:06;;;;;;;5.07;1.87;;;12.60;99.90;;;;;;5017333;28;20697;-80
2022/10/23 05:58:32;;;;;;;7.70;2.03;;;12.60;99.90;;;;;;5017986;28;20173;-80
2022/10/23 06:00:58;;;;;;;6.70;2.13;;;12.60;99.90;;;;;;5016710;28;20173;-80
2022/10/23 06:03:24;;;;;;;7.50;1.87;;;12.60;99.90;;;;;;5015607;28;20231;-79
2022/10/23 06:05:50;;;;;;;8.53;1.87;;;12.60;99.90;;;;;;5013890;28;20264;-82
2022/10/23 06:08:15;;;;;;;7.40;2.20;;;12.70;99.90;;;;;;5014810;28;20201;-79
2022/10/23 06:10:41;;;;;;;3.10;1.97;;;12.70;99.90;;;;;;5015418;28;20184;-79
2022/10/23 06:13:06;;;;;;;4.73;2.10;;;12.70;99.90;;;;;;5014154;28;20180;-79
2022/10/23 06:15:32;;;;;;;6.73;1.70;;;12.70;99.90;;;;;;5016025;28;20200;-79
2022/10/23 06:18:02;;;;;;;9.87;2.00;;;12.70;99.90;;;;;;5015945;28;20204;-80
2022/10/23 06:20:27;;;;;;;5.70;1.70;;;12.70;99.90;;;;;;5014572;28;20173;-79
2022/10/23 06:22:53;;;;;;;2.73;1.80;;;12.70;99.90;;;;;;5013786;28;20180;-79
2022/10/23 06:25:19;;;;;;;8.13;1.93;;;12.80;99.90;;;;;;5014700;28;20172;-78
2022/10/23 06:27:44;;;;;;;4.07;1.60;;;12.80;99.90;;;;;;5013651;28;20279;-79
2022/10/23 06:30:10;;;;;;;3.23;2.00;;;12.80;99.90;;;;;;5013271;28;20666;-78
2022/10/23 06:32:36;;;;;;;4.40;1.70;;;12.80;99.90;;;;;;5014664;28;20173;-78
2022/10/23 06:35:02;;;;;;;4.20;1.50;;;12.80;99.90;;;;;;5013418;28;20173;-78
2022/10/23 06:37:27;;;;;;;3.50;1.80;;;12.80;99.90;;;;;;5013462;28;20254;-77
2022/10/23 06:39:53;;;;;;;4.40;1.73;;;12.80;99.90;;;;;;5014601;28;20193;-78
2022/10/23 06:42:18;;;;;;;7.43;2.13;;;12.80;99.90;;;;;;5019340;28;20173;-78
2022/10/23 06:44:44;;;;;;;5.57;1.93;;;12.90;99.90;;;;;;5019045;28;20247;-79
2022/10/23 06:47:09;;;;;;;3.63;1.70;;;12.90;99.90;;;;;;5017011;28;20674;-79
2022/10/23 06:49:35;;;;;;;8.20;1.90;;;12.90;99.90;;;;;;5018387;28;20192;-79
2022/10/23 06:52:00;;;;;;;5.03;2.03;;;12.90;99.90;;;;;;5017301;28;20181;-78
2022/10/23 06:54:26;;;;;;;2.30;1.67;;;12.90;99.90;;;;;;5018256;28;20631;-79
2022/10/23 06:56:52;;;;;;;4.20;1.50;;;13.00;99.90;;;;;;5018372;28;20707;-79
2022/10/23 06:59:18;;;;;;;5.80;1.53;;;13.00;99.90;;;;;;5017379;28;20173;-79
2022/10/23 07:01:44;;;;;;;3.03;1.57;;;13.00;99.90;;;;;;5018742;28;20301;-79
2022/10/23 07:04:12;;;;;;;3.90;1.60;;;13.00;99.90;;;;;;5018743;28;20211;-78
2022/10/23 07:06:38;;;;;;;4.93;1.60;;;13.10;99.90;;;;;;5017738;28;20185;-79
2022/10/23 07:09:03;;;;;;;3.40;1.40;;;13.00;99.90;;;;;;5018377;28;20177;-77
2022/10/23 07:11:29;;;;;;;3.00;1.70;;;13.00;99.90;;;;;;5016906;28;20200;-79
2022/10/23 07:13:54;;;;;;;2.47;1.50;;;13.00;99.90;;;;;;5018473;28;20644;-79
2022/10/23 07:16:21;;;;;;;4.07;1.40;;;13.10;99.90;;;;;;5016311;28;20212;-79
2022/10/23 07:18:49;;;;;;;9.40;1.60;;;13.10;99.90;;;;;;5010482;28;20181;-79
2022/10/23 07:21:15;;;;;;;3.50;1.90;;;13.10;99.90;;;;;;5012730;28;20173;-79
2022/10/23 07:23:40;;;;;;;6.60;2.10;;;13.20;99.90;;;;;;5008759;28;20177;-79
2022/10/23 07:26:13;;;;;;;7.63;1.90;;;13.20;99.90;;;;;;5010192;28;20214;-78
2022/10/23 07:28:40;;;;;;;8.07;2.07;;;13.30;99.90;;;;;;5008455;28;20165;-79
2022/10/23 07:31:06;;;;;;;3.40;1.70;;;13.30;99.90;;;;;;5009959;28;20265;-80
2022/10/23 07:33:32;;;;;;;5.00;1.97;;;13.30;99.90;;;;;;5008370;28;20239;-79
2022/10/23 07:35:58;;;;;;;3.97;1.73;;;13.40;99.90;;;;;;5006715;28;20178;-79
2022/10/23 07:38:24;;;;;;;4.83;1.73;;;13.40;99.90;;;;;;5006532;28;20185;-79
2022/10/23 07:40:50;;;;;;;11.43;1.90;;;13.40;99.90;;;;;;5007348;28;20204;-79
2022/10/23 07:43:17;;;;;;;9.03;2.10;;;13.50;99.90;;;;;;5009698;28;20580;-79
2022/10/23 07:45:45;;;;;;;5.90;1.77;;;13.50;99.90;;;;;;5007819;28;20185;-79
2022/10/23 07:48:10;;;;;;;6.03;1.70;;;13.60;99.90;;;;;;5037904;28;20220;-80
2022/10/23 07:50:37;;;;;;;4.07;1.80;;;13.60;99.90;;;;;;5007163;28;20655;-80
2022/10/23 07:53:06;;;;;;;6.10;1.40;;;13.60;99.90;;;;;;5005650;28;20661;-79
2022/10/23 07:55:31;;;;;;;4.63;1.50;;;13.70;99.90;;;;;;5006430;28;20656;-79
2022/10/23 07:57:57;;;;;;;4.17;1.90;;;13.80;99.90;;;;;;5015339;28;20212;-79
2022/10/23 08:00:22;;;;;;;4.70;1.77;;;13.80;99.90;;;;;;5013947;28;20181;-79
2022/10/23 08:02:48;;;;;;;4.03;1.50;;;13.90;99.90;;;;;;5017518;28;20184;-80
2022/10/23 08:05:13;;;;;;;3.07;1.53;;;13.90;99.90;;;;;;5016321;28;20169;-80
2022/10/23 08:07:39;;;;;;;5.07;1.43;;;14.00;99.90;;;;;;5013811;28;20220;-78
2022/10/23 08:10:05;;;;;;;3.80;1.23;;;14.10;99.90;;;;;;5017394;28;20614;-78
2022/10/23 08:12:31;;;;;;;6.57;1.67;;;14.10;99.90;;;;;;5016069;28;20177;-79
2022/10/23 08:14:56;;;;;;;3.07;1.53;;;14.20;99.90;;;;;;5016843;28;20525;-79
2022/10/23 08:17:22;;;;;;;5.43;1.50;;;14.20;99.90;;;;;;5015734;28;20276;-79
2022/10/23 08:19:47;;;;;;;4.70;1.53;;;14.30;99.90;;;;;;5017151;28;20720;-79
2022/10/23 08:22:13;;;;;;;6.57;1.80;;;14.40;99.90;;;;;;5011479;28;20197;-80
2022/10/23 08:24:39;;;;;;;2.67;1.37;;;14.50;99.90;;;;;;5010123;28;20536;-79
2022/10/23 08:27:04;;;;;;;5.00;1.87;;;14.60;99.90;;;;;;5008539;28;20209;-79
2022/10/23 08:29:30;;;;;;;8.90;1.33;;;14.70;99.90;;;;;;5006393;28;20182;-80
2022/10/23 08:31:56;;;;;;;4.33;1.20;;;14.70;99.90;;;;;;5012265;28;20174;-80
2022/10/23 08:34:22;;;;;;;2.60;1.70;;;14.80;99.90;;;;;;5012864;28;20180;-81
2022/10/23 08:36:48;;;;;;;2.63;1.27;;;14.90;99.90;;;;;;5015865;28;20200;-81
2022/10/23 08:39:13;;;;;;;4.47;1.30;;;15.00;99.90;;;;;;5013627;28;20235;-80
2022/10/23 08:41:47;;;;;;;2.97;1.10;;;15.10;99.90;;;;;;5003287;28;20201;-79
2022/10/23 08:44:21;;;;;;;3.27;1.10;;;15.20;99.90;;;;;;4996959;28;20166;-80
2022/10/23 08:46:54;;;;;;;6.23;1.40;;;15.20;99.90;;;;;;4998411;28;20209;-78
2022/10/23 08:49:45;;;;;;;3.70;1.43;;;15.30;99.90;;;;;;5015986;28;20227;-80
2022/10/23 08:52:30;;;;;;;2.67;1.20;;;15.40;99.90;;;;;;5016750;28;20188;-80
2022/10/23 08:55:11;;;;;;;3.90;0.87;;;15.30;99.90;;;;;;5016199;28;20264;-79
2022/10/23 08:57:44;;;;;;;3.33;1.00;;;15.50;99.90;;;;;;5015386;28;20193;-80
2022/10/23 09:00:15;;;;;;;1.90;1.13;;;15.60;99.90;;;;;;5032335;28;20168;-80
2022/10/23 09:02:44;;;;;;;3.07;1.33;;;15.60;99.90;;;;;;5034849;28;20193;-78
2022/10/23 09:05:33;;;;;;;2.77;1.40;;;15.70;99.90;;;;;;5035363;28;20173;-80
2022/10/23 09:08:18;;;;;;;4.03;1.47;;;15.70;99.90;;;;;;5036384;28;20195;-80
2022/10/23 09:11:06;;;;;;;3.70;1.20;;;15.80;99.90;;;;;;5035384;28;20169;-81
2022/10/23 09:13:59;;;;;;;4.03;1.03;;;15.80;99.90;;;;;;5024633;28;20183;-81
2022/10/23 09:16:49;;;;;;;4.63;1.20;;;15.80;99.90;;;;;;5018344;28;20212;-81
2022/10/23 09:19:18;;;;;;;4.17;1.13;;;15.90;99.90;;;;;;5020845;28;20169;-81
2022/10/23 09:21:50;;;;;;;2.50;0.93;;;16.00;99.90;;;;;;5019721;28;20165;-81
2022/10/23 09:24:18;;;;;;;2.50;0.90;;;16.00;99.90;;;;;;5019392;28;20652;-81
2022/10/23 09:26:48;;;;;;;1.10;1.00;;;16.00;99.90;;;;;;5019564;28;20185;-81
2022/10/23 09:29:22;;;;;;;2.00;1.30;;;16.10;99.90;;;;;;5019904;28;20172;-81
2022/10/23 09:32:04;;;;;;;5.30;1.23;;;16.10;99.90;;;;;;5019572;28;20180;-81
2022/10/23 09:34:32;;;;;;;2.77;1.17;;;16.10;99.90;;;;;;5019819;28;20286;-80
2022/10/23 09:37:21;;;;;;;3.30;1.10;;;16.10;99.90;;;;;;5017435;28;20255;-81
2022/10/23 09:39:46;;;;;;;2.37;1.10;;;16.20;99.90;;;;;;5020585;28;20304;-81
2022/10/23 09:42:21;;;;;;;6.63;1.43;;;16.30;99.90;;;;;;5021514;28;20255;-80
2022/10/23 09:44:49;;;;;;;3.47;1.20;;;16.30;99.90;;;;;;5022629;28;20577;-81
2022/10/23 09:47:19;;;;;;;3.50;1.10;;;16.40;99.90;;;;;;5025656;28;20197;-84
2022/10/23 09:49:53;;;;;;;3.70;1.20;;;16.50;99.90;;;;;;5022771;28;20153;-84
2022/10/23 09:52:24;;;;;;;5.33;1.60;;;16.50;99.90;;;;;;5021742;28;20165;-84
2022/10/23 09:54:53;;;;;;;3.17;1.30;;;16.50;99.90;;;;;;5014717;28;20223;-83
2022/10/23 09:57:36;;;;;;;3.20;1.53;;;16.60;99.90;;;;;;5015291;28;20207;-84
2022/10/23 10:00:19;;;;;;;1.57;0.90;;;16.60;99.90;;;;;;5017396;28;20177;-82
2022/10/23 10:02:54;;;;;;;2.67;1.13;;;16.70;99.90;;;;;;5018121;28;20157;-81
2022/10/23 10:05:23;;;;;;;3.07;1.20;;;16.70;99.90;;;;;;5017058;28;20647;-81
2022/10/23 10:08:17;;;;;;;4.00;1.50;;;16.80;99.90;;;;;;5016554;28;20311;-82
2022/10/23 10:10:59;;;;;;;6.10;2.37;;;16.80;99.90;;;;;;5012230;28;20192;-82
2022/10/23 10:13:37;;;;;;;8.93;1.60;;;16.80;99.90;;;;;;5015619;28;20176;-82
2022/10/23 10:16:19;;;;;;;4.10;1.50;;;16.90;99.90;;;;;;5016204;28;20184;-81
2022/10/23 10:19:04;;;;;;;2.97;1.60;;;16.90;99.90;;;;;;5015496;28;20200;-81
2022/10/23 10:21:42;;;;;;;3.00;1.03;;;16.90;99.90;;;;;;5016389;28;20168;-80
2022/10/23 10:24:14;;;;;;;3.70;1.00;;;17.00;99.90;;;;;;5015582;28;20247;-81
2022/10/23 10:26:54;;;;;;;7.57;0.97;;;17.00;99.90;;;;;;5015967;28;20275;-81
2022/10/23 10:29:35;;;;;;;4.17;1.13;;;17.00;99.90;;;;;;5017087;28;20167;-81
2022/10/23 10:32:01;;;;;;;1.77;1.27;;;17.10;99.90;;;;;;5017523;28;20169;-81
2022/10/23 10:34:35;;;;;;;2.73;0.97;;;17.10;99.90;;;;;;5015964;28;20211;-80
2022/10/23 10:37:04;;;;;;;3.37;1.10;;;17.20;99.90;;;;;;5015345;28;20295;-80
2022/10/23 10:39:40;;;;;;;2.23;1.23;;;17.20;99.90;;;;;;5015863;28;20211;-81
2022/10/23 10:42:33;;;;;;;5.30;1.60;;;17.20;99.90;;;;;;5016748;28;20215;-80
2022/10/23 10:45:03;;;;;;;5.60;1.63;;;17.30;99.90;;;;;;5016045;28;20169;-81
2022/10/23 10:47:37;;;;;;;3.23;1.17;;;17.30;99.90;;;;;;5014671;28;20618;-80
2022/10/23 10:50:24;;;;;;;1.80;0.93;;;17.30;99.90;;;;;;5017649;28;20192;-79
2022/10/23 10:53:04;;;;;;;3.23;1.17;;;17.40;99.90;;;;;;5016679;28;20165;-81
2022/10/23 10:55:38;;;;;;;1.93;1.10;;;17.40;99.90;;;;;;5016889;28;20165;-81
2022/10/23 10:58:30;;;;;;;6.17;1.20;;;17.40;99.90;;;;;;5016514;28;20207;-79
2022/10/23 11:01:00;;;;;;;1.13;0.90;;;17.50;99.90;;;;;;5015199;28;20556;-81
2022/10/23 11:03:31;;;;;;;6.47;1.20;;;17.60;99.90;;;;;;5016608;28;20200;-80
2022/10/23 11:05:58;;;;;;;2.60;1.00;;;17.60;99.90;;;;;;5014912;28;20185;-80
2022/10/23 11:08:31;;;;;;;2.23;1.10;;;17.70;99.90;;;;;;5014665;28;20181;-81
2022/10/23 11:11:09;;;;;;;5.13;1.30;;;17.70;99.90;;;;;;5016250;28;20169;-81
2022/10/23 11:13:37;;;;;;;2.30;0.73;;;17.70;99.90;;;;;;5014617;28;20181;-79
2022/10/23 11:16:23;;;;;;;3.47;1.10;;;17.80;99.90;;;;;;5014560;28;20259;-80
2022/10/23 11:19:04;;;;;;;2.57;0.73;;;17.80;99.90;;;;;;5015295;28;20193;-79
2022/10/23 11:21:43;;;;;;;4.17;1.50;;;17.80;99.90;;;;;;5016122;28;20200;-82
2022/10/23 11:24:19;;;;;;;7.70;1.13;;;17.80;99.90;;;;;;5016201;28;20573;-80
2022/10/23 11:27:03;;;;;;;11.97;2.03;;;17.70;99.90;;;;;;5019021;28;20193;-82
2022/10/23 11:29:39;;;;;;;1.10;0.80;;;17.90;99.90;;;;;;5018574;28;20177;-79
2022/10/23 11:32:23;;;;;;;4.23;1.00;;;17.90;99.90;;;;;;5019562;28;20546;-79
2022/10/23 11:34:55;;;;;;;2.93;1.00;;;17.90;99.90;;;;;;5031350;28;20176;-78
2022/10/23 11:37:21;;;;;;;10.53;1.17;;;18.00;99.90;;;;;;5031172;28;20244;-78
2022/10/23 11:40:02;;;;;;;3.23;1.00;;;18.00;99.90;;;;;;5022240;28;20192;-78
2022/10/23 11:42:48;;;;;;;3.07;1.00;;;18.00;99.90;;;;;;5018700;28;20252;-79
2022/10/23 11:45:37;;;;;;;3.00;1.13;;;17.90;99.90;;;;;;5018872;28;20219;-79
2022/10/23 11:48:13;;;;;;;4.13;1.00;;;17.90;99.90;;;;;;5018422;28;20303;-82
2022/10/23 11:50:45;;;;;;;3.23;1.10;;;17.90;99.90;;;;;;5018896;28;20169;-80
2022/10/23 11:53:30;;;;;;;6.67;1.10;;;17.90;99.90;;;;;;5018788;28;20181;-82
2022/10/23 11:55:59;;;;;;;2.97;1.13;;;17.90;99.90;;;;;;5018668;28;20604;-80
2022/10/23 11:58:46;;;;;;;5.07;1.00;;;17.90;99.90;;;;;;5018305;28;20255;-82
2022/10/23 12:01:37;;;;;;;3.07;1.00;;;17.90;99.90;;;;;;5004470;28;20634;-82
2022/10/23 12:04:23;;;;;;;1.83;0.90;;;17.90;99.90;;;;;;5019311;28;20164;-80
2022/10/23 12:06:55;;;;;;;8.63;1.57;;;17.90;99.90;;;;;;5017936;28;20201;-82
2022/10/23 12:09:25;;;;;;;8.60;1.27;;;18.00;99.90;;;;;;5019062;28;20244;-82
2022/10/23 12:12:07;;;;;;;3.50;1.23;;;18.10;99.90;;;;;;5017268;28;20173;-82
2022/10/23 12:14:45;;;;;;;2.83;0.90;;;18.20;99.90;;;;;;5019072;28;20161;-82
2022/10/23 12:17:23;;;;;;;2.60;1.13;;;18.30;99.90;;;;;;5018523;28;20212;-82
2022/10/23 12:20:13;;;;;;;4.87;1.00;;;18.40;99.90;;;;;;5017382;28;20275;-82
2022/10/23 12:22:46;;;;;;;3.17;1.00;;;18.50;99.90;;;;;;5006319;28;20352;-81
2022/10/23 12:25:25;;;;;;;2.43;1.00;;;18.60;99.90;;;;;;5016803;28;20173;-81
2022/10/23 12:28:07;;;;;;;3.37;1.27;;;18.60;99.90;;;;;;5017404;28;20648;-83
2022/10/23 12:30:46;;;;;;;4.10;0.80;;;18.60;99.90;;;;;;5018928;28;20283;-83
2022/10/23 12:33:33;;;;;;;3.90;1.10;;;18.70;99.90;;;;;;5018539;28;20593;-84
2022/10/23 12:36:08;;;;;;;1.87;1.00;;;18.70;99.90;;;;;;5016563;28;20308;-82
2022/10/23 12:38:43;;;;;;;9.37;1.20;;;18.70;99.90;;;;;;5015073;28;20200;-84
2022/10/23 12:41:32;;;;;;;3.97;0.83;;;18.70;99.90;;;;;;5016853;28;20630;-83
2022/10/23 12:44:03;;;;;;;3.07;1.10;;;18.70;99.90;;;;;;5016610;28;20165;-82
2022/10/23 12:46:38;;;;;;;6.00;1.50;;;18.70;99.90;;;;;;5015476;28;20204;-82
2022/10/23 12:49:21;;;;;;;3.03;1.20;;;18.80;99.90;;;;;;5015674;28;20214;-81
2022/10/23 12:52:14;;;;;;;3.33;1.40;;;18.80;99.90;;;;;;5017811;28;20162;-82
2022/10/23 12:54:40;;;;;;;2.00;1.20;;;18.80;99.90;;;;;;5015370;28;20165;-81
2022/10/23 12:57:40;;;;;;;2.13;1.00;;;18.80;99.90;;;;;;5017681;28;20343;-80
2022/10/23 13:00:15;;;;;;;4.87;1.30;;;18.80;99.90;;;;;;5002924;28;20259;-82
2022/10/23 13:02:41;;;;;;;2.60;1.27;;;18.80;99.90;;;;;;5017543;28;20192;-83
2022/10/23 13:05:12;;;;;;;1.17;1.07;;;18.80;99.90;;;;;;5017471;28;20195;-82
2022/10/23 13:07:42;;;;;;;4.00;1.30;;;18.70;99.90;;;;;;5015109;28;20744;-83